Time;durP1;ratioP1;P1;durP2;ratioP2;P2;SDS_P1;SDS_P2;PMS_P1;PMS_P2;Temp;Humidity;BMP_temperature;BMP_pressure;BME280_temperature;BME280_humidity;BME280_pressure;Samples;Min_cycle;Max_cycle;Signal;HPM_P1;HPM_P2
2021/12/26 00:00:20;;;;;;;30.93;23.30;;;7.20;25.30;;;;;;5092295;28;20198;-78
2021/12/26 00:02:47;;;;;;;30.90;22.00;;;7.30;1.00;;;;;;5092084;28;20210;-75
2021/12/26 00:05:14;;;;;;;31.63;22.73;;;7.50;1.00;;;;;;5092096;28;20660;-74
2021/12/26 00:07:42;;;;;;;29.77;21.87;;;7.60;1.00;;;;;;5092171;28;20205;-74
2021/12/26 00:10:12;;;;;;;25.57;19.40;;;7.60;1.00;;;;;;5091414;28;20213;-74
2021/12/26 00:12:45;;;;;;;31.67;21.60;;;7.50;1.00;;;;;;5091912;28;20665;-74
2021/12/26 00:15:13;;;;;;;27.93;20.00;;;7.30;1.00;;;;;;5091329;28;20204;-74
2021/12/26 00:17:40;;;;;;;28.80;21.23;;;7.20;1.00;;;;;;5091930;28;20237;-74
2021/12/26 00:20:11;;;;;;;32.27;21.87;;;7.30;1.00;;;;;;5092123;28;20209;-74
2021/12/26 00:22:39;;;;;;;31.80;21.63;;;7.20;1.00;;;;;;5092383;28;20270;-74
2021/12/26 00:25:11;;;;;;;26.93;20.53;;;7.20;1.00;;;;;;5091471;28;20246;-73
2021/12/26 00:27:38;;;;;;;29.70;20.17;;;7.10;1.00;;;;;;5091934;28;20618;-74
2021/12/26 00:30:09;;;;;;;28.83;20.87;;;7.00;1.00;;;;;;5091727;28;20217;-74
2021/12/26 00:32:37;;;;;;;27.40;19.93;;;7.00;1.00;;;;;;5091989;28;20209;-74
2021/12/26 00:35:06;;;;;;;28.80;21.57;;;7.10;1.00;;;;;;5091352;28;20205;-74
2021/12/26 00:37:32;;;;;;;27.57;22.40;;;6.90;1.00;;;;;;5091664;28;20233;-73
2021/12/26 00:40:00;;;;;;;28.00;19.80;;;6.90;1.00;;;;;;5091242;28;20209;-73
2021/12/26 00:42:30;;;;;;;30.07;20.07;;;6.80;1.00;;;;;;5091849;28;20201;-75
2021/12/26 00:44:57;;;;;;;28.67;21.23;;;6.70;1.00;;;;;;5091296;28;20205;-73
2021/12/26 00:47:29;;;;;;;27.40;21.07;;;6.70;1.00;;;;;;5091067;28;20198;-73
2021/12/26 00:49:57;;;;;;;26.50;21.70;;;6.60;1.00;;;;;;5091081;28;20197;-74
2021/12/26 00:52:24;;;;;;;24.37;19.43;;;6.50;1.00;;;;;;5091420;28;20604;-74
2021/12/26 00:54:51;;;;;;;24.17;18.37;;;6.50;1.00;;;;;;5090787;28;20202;-76
2021/12/26 00:57:19;;;;;;;23.27;18.93;;;6.40;1.00;;;;;;5091282;28;20233;-76
2021/12/26 00:59:46;;;;;;;25.93;19.43;;;6.40;1.00;;;;;;5091161;28;20201;-76
2021/12/26 01:02:14;;;;;;;24.37;16.67;;;6.40;1.00;;;;;;5091269;28;20197;-76
2021/12/26 01:04:41;;;;;;;20.30;16.73;;;6.40;1.00;;;;;;5091093;28;20209;-76
2021/12/26 01:07:20;;;;;;;22.07;18.03;;;6.30;12.90;;;;;;5083972;28;20256;-76
2021/12/26 01:09:50;;;;;;;23.30;17.57;;;6.40;28.20;;;;;;5070517;28;20202;-76
2021/12/26 01:12:18;;;;;;;17.80;15.37;;;6.30;19.70;;;;;;5071013;28;20217;-74
2021/12/26 01:14:50;;;;;;;24.73;18.17;;;6.20;55.70;;;;;;5070706;28;20263;-73
2021/12/26 01:17:21;;;;;;;24.90;16.93;;;6.20;99.90;;;;;;5070422;28;20230;-74
2021/12/26 01:19:51;;;;;;;23.33;15.93;;;6.20;99.90;;;;;;5070545;28;20335;-75
2021/12/26 01:22:22;;;;;;;24.07;17.37;;;6.20;99.90;;;;;;5082657;28;20224;-73
2021/12/26 01:24:55;;;;;;;20.00;15.80;;;6.10;99.90;;;;;;5090707;28;20205;-74
2021/12/26 01:27:23;;;;;;;20.80;14.13;;;6.20;99.90;;;;;;5090983;28;20210;-73
2021/12/26 01:29:50;;;;;;;18.73;14.40;;;6.30;99.90;;;;;;5090237;28;20236;-74
2021/12/26 01:32:18;;;;;;;21.23;17.13;;;6.40;99.90;;;;;;5091011;28;20197;-74
2021/12/26 01:34:47;;;;;;;21.97;15.20;;;6.40;99.90;;;;;;5090563;28;20262;-74
2021/12/26 01:37:14;;;;;;;18.50;14.97;;;6.20;35.90;;;;;;5090581;28;20769;-73
2021/12/26 01:39:43;;;;;;;21.00;16.57;;;6.30;16.00;;;;;;5070711;28;20256;-74
2021/12/26 01:42:10;;;;;;;21.77;17.27;;;6.30;12.50;;;;;;5070358;28;20259;-74
2021/12/26 01:44:40;;;;;;;22.80;16.43;;;6.40;4.40;;;;;;5071034;28;20208;-75
2021/12/26 01:47:08;;;;;;;20.33;15.83;;;6.40;1.00;;;;;;5070583;28;20202;-75
2021/12/26 01:49:36;;;;;;;25.47;15.97;;;6.50;1.00;;;;;;5070967;28;20199;-75
2021/12/26 01:52:05;;;;;;;19.90;15.10;;;6.50;1.00;;;;;;5076309;28;20286;-75
2021/12/26 01:54:38;;;;;;;18.70;15.03;;;6.50;1.00;;;;;;5090737;28;20665;-75
2021/12/26 01:57:10;;;;;;;22.27;16.50;;;6.50;1.00;;;;;;5090393;28;20712;-75
2021/12/26 01:59:38;;;;;;;18.60;15.80;;;6.40;1.00;;;;;;5091236;28;20251;-75
2021/12/26 02:02:05;;;;;;;21.03;14.03;;;6.40;1.00;;;;;;5090571;28;20201;-75
2021/12/26 02:04:33;;;;;;;19.27;13.60;;;6.40;1.00;;;;;;5090615;28;20206;-75
2021/12/26 02:07:03;;;;;;;17.67;14.63;;;6.50;1.00;;;;;;5090320;28;20266;-75
2021/12/26 02:09:30;;;;;;;21.43;15.47;;;6.60;1.00;;;;;;5090592;28;20209;-74
2021/12/26 02:11:58;;;;;;;18.07;14.13;;;6.60;1.00;;;;;;5090465;28;20254;-75
2021/12/26 02:14:26;;;;;;;22.57;15.37;;;6.60;1.00;;;;;;5090681;28;20210;-74
2021/12/26 02:16:54;;;;;;;15.47;12.80;;;6.40;1.00;;;;;;5089904;28;20226;-74
2021/12/26 02:19:21;;;;;;;17.17;13.37;;;6.30;1.00;;;;;;5090635;28;20258;-74
2021/12/26 02:22:09;;;;;;;17.77;13.37;;;6.20;1.00;;;;;;5089441;28;20551;-74
2021/12/26 02:25:08;;;;;;;15.67;12.07;;;6.30;1.00;;;;;;5090778;28;20220;-74
2021/12/26 02:27:32;;;;;;;15.33;11.03;;;6.40;1.00;;;;;;5089832;28;20301;-75
2021/12/26 02:30:00;;;;;;;13.63;11.93;;;6.50;1.00;;;;;;5089750;28;20605;-73
2021/12/26 02:32:28;;;;;;;13.90;11.97;;;6.60;1.00;;;;;;5090404;28;20209;-73
2021/12/26 02:34:55;;;;;;;14.40;10.73;;;6.60;1.00;;;;;;5093298;28;20292;-73
2021/12/26 02:37:24;;;;;;;13.10;10.97;;;6.80;1.00;;;;;;5093981;28;20650;-73
2021/12/26 02:39:51;;;;;;;15.10;11.93;;;6.70;1.00;;;;;;5093743;28;20225;-73
2021/12/26 02:42:19;;;;;;;14.27;10.80;;;6.50;1.00;;;;;;5094083;28;20201;-73
2021/12/26 02:44:46;;;;;;;17.13;10.90;;;6.50;1.00;;;;;;5093361;28;20745;-75
2021/12/26 02:47:14;;;;;;;12.57;9.97;;;6.50;1.00;;;;;;5093982;28;20663;-75
2021/12/26 02:49:41;;;;;;;10.77;9.40;;;6.60;1.00;;;;;;5094136;28;20208;-75
2021/12/26 02:52:08;;;;;;;14.13;10.90;;;6.40;1.00;;;;;;5093992;28;20205;-75
2021/12/26 02:54:37;;;;;;;15.20;10.93;;;8.50;1.00;;;;;;5094208;28;20201;-74
2021/12/26 02:57:05;;;;;;;13.07;9.97;;;6.30;1.00;;;;;;5093217;28;20235;-73
2021/12/26 02:59:32;;;;;;;15.20;12.50;;;6.30;1.00;;;;;;5092674;28;20209;-75
2021/12/26 03:01:59;;;;;;;13.60;11.33;;;6.50;1.00;;;;;;5093498;28;20320;-75
2021/12/26 03:04:26;;;;;;;14.93;11.67;;;6.60;1.00;;;;;;5093736;28;20197;-76
2021/12/26 03:07:01;;;;;;;14.77;10.83;;;6.60;1.00;;;;;;5093313;28;20248;-74
2021/12/26 03:09:31;;;;;;;14.33;11.40;;;6.70;1.00;;;;;;5093465;28;20207;-75
2021/12/26 03:12:00;;;;;;;13.57;10.80;;;6.80;1.00;;;;;;5093132;28;20240;-74
2021/12/26 03:14:27;;;;;;;11.80;10.53;;;6.70;1.00;;;;;;5093517;28;20630;-73
2021/12/26 03:16:54;;;;;;;15.10;10.87;;;6.60;1.00;;;;;;5092841;28;20722;-74
2021/12/26 03:19:21;;;;;;;13.50;10.83;;;6.50;1.00;;;;;;5093442;28;20198;-75
2021/12/26 03:21:51;;;;;;;17.17;11.33;;;6.30;1.00;;;;;;5092147;28;20275;-76
2021/12/26 03:24:19;;;;;;;15.77;11.83;;;6.40;1.00;;;;;;5093174;28;20292;-74
2021/12/26 03:26:46;;;;;;;13.87;10.83;;;6.30;1.00;;;;;;5093113;28;20255;-75
2021/12/26 03:29:14;;;;;;;14.23;10.97;;;6.20;1.00;;;;;;5092948;28;20221;-77
2021/12/26 03:31:42;;;;;;;16.27;11.13;;;6.20;1.00;;;;;;5093095;28;20206;-76
2021/12/26 03:34:09;;;;;;;13.17;10.43;;;6.10;1.00;;;;;;5093642;28;20278;-77
2021/12/26 03:36:36;;;;;;;15.40;10.83;;;6.10;1.00;;;;;;5093307;28;20201;-73
2021/12/26 03:39:05;;;;;;;14.83;9.87;;;6.10;1.00;;;;;;5092562;28;20295;-73
2021/12/26 03:41:32;;;;;;;11.00;9.03;;;6.00;1.00;;;;;;5092999;28;20234;-73
2021/12/26 03:43:59;;;;;;;12.20;10.37;;;6.10;1.00;;;;;;5091823;28;20205;-73
2021/12/26 03:46:30;;;;;;;12.37;10.20;;;6.10;1.00;;;;;;5092839;28;20655;-78
2021/12/26 03:49:01;;;;;;;12.10;9.57;;;6.10;1.00;;;;;;5092568;28;20621;-78
2021/12/26 03:51:28;;;;;;;13.23;10.87;;;6.10;1.00;;;;;;5092849;28;20205;-75
2021/12/26 03:53:55;;;;;;;15.40;10.97;;;6.00;1.00;;;;;;5092333;28;20553;-74
2021/12/26 03:56:22;;;;;;;14.30;10.47;;;6.00;1.00;;;;;;5092649;28;20201;-74
2021/12/26 03:58:49;;;;;;;11.57;9.83;;;6.10;1.00;;;;;;5092181;28;20229;-74
2021/12/26 04:01:16;;;;;;;13.07;10.43;;;6.20;1.00;;;;;;5092452;28;20205;-76
2021/12/26 04:03:44;;;;;;;12.73;9.93;;;6.20;1.00;;;;;;5092084;28;20288;-78
2021/12/26 04:06:11;;;;;;;13.33;9.80;;;6.10;1.00;;;;;;5092446;28;20201;-75
2021/12/26 04:08:38;;;;;;;14.13;10.63;;;6.00;1.00;;;;;;5092979;28;20201;-76
2021/12/26 04:11:05;;;;;;;13.10;10.90;;;6.00;1.00;;;;;;5092093;28;20251;-79
2021/12/26 04:13:34;;;;;;;14.77;11.10;;;6.00;1.00;;;;;;5092448;28;20205;-76
2021/12/26 04:16:01;;;;;;;14.77;9.67;;;6.10;1.00;;;;;;5091511;28;20320;-75
2021/12/26 04:18:28;;;;;;;14.10;10.90;;;6.20;1.00;;;;;;5092126;28;20255;-75
2021/12/26 04:20:57;;;;;;;13.60;10.43;;;6.20;1.00;;;;;;5091976;28;20207;-77
2021/12/26 04:23:24;;;;;;;12.70;10.17;;;6.20;1.00;;;;;;5092324;28;20266;-75
2021/12/26 04:25:51;;;;;;;13.33;10.00;;;6.00;1.00;;;;;;5091640;28;20209;-76
2021/12/26 04:28:19;;;;;;;13.47;10.17;;;6.00;1.00;;;;;;5092059;28;20259;-75
2021/12/26 04:30:48;;;;;;;14.70;10.73;;;6.00;1.00;;;;;;5091225;28;20256;-73
2021/12/26 04:33:15;;;;;;;15.40;11.77;;;6.00;1.00;;;;;;5091897;28;20634;-75
2021/12/26 04:35:42;;;;;;;15.97;10.57;;;5.90;1.00;;;;;;5091753;28;20202;-74
2021/12/26 04:38:10;;;;;;;11.47;9.23;;;6.00;1.00;;;;;;5091940;28;20225;-74
2021/12/26 04:40:37;;;;;;;12.27;9.23;;;5.90;1.00;;;;;;5091818;28;20206;-75
2021/12/26 04:43:04;;;;;;;13.23;10.43;;;5.90;1.00;;;;;;5091685;28;20208;-75
2021/12/26 04:45:32;;;;;;;12.97;10.43;;;5.90;1.00;;;;;;5091570;28;20205;-75
2021/12/26 04:48:01;;;;;;;12.23;10.00;;;5.90;1.00;;;;;;5091505;28;20214;-75
2021/12/26 04:50:29;;;;;;;12.83;9.00;;;6.10;1.00;;;;;;5091841;28;20204;-74
2021/12/26 04:52:57;;;;;;;12.63;11.17;;;5.90;1.00;;;;;;5091408;28;20197;-74
2021/12/26 04:55:28;;;;;;;13.40;8.53;;;5.90;1.00;;;;;;5091228;28;20256;-75
2021/12/26 04:57:57;;;;;;;11.87;10.13;;;6.00;1.00;;;;;;5090823;28;20233;-75
2021/12/26 05:00:29;;;;;;;13.23;9.00;;;6.00;1.00;;;;;;5091500;28;20221;-77
2021/12/26 05:02:57;;;;;;;11.67;8.80;;;6.10;1.00;;;;;;5090952;28;20665;-75
2021/12/26 05:05:26;;;;;;;10.80;9.70;;;6.10;1.00;;;;;;5090780;28;20205;-75
2021/12/26 05:07:54;;;;;;;9.63;8.63;;;6.30;1.00;;;;;;5090958;28;20208;-75
2021/12/26 05:10:24;;;;;;;12.80;9.73;;;6.40;1.00;;;;;;5091211;28;20201;-76
2021/12/26 05:12:53;;;;;;;12.57;10.17;;;6.50;1.00;;;;;;5090537;28;20236;-75
2021/12/26 05:15:21;;;;;;;10.53;8.70;;;6.60;1.00;;;;;;5091226;28;20255;-75
2021/12/26 05:17:49;;;;;;;12.63;9.87;;;6.60;1.00;;;;;;5090749;28;20236;-75
2021/12/26 05:20:18;;;;;;;12.00;9.57;;;6.50;1.00;;;;;;5091281;28;20283;-74
2021/12/26 05:22:45;;;;;;;13.20;8.80;;;6.40;1.00;;;;;;5090754;28;20206;-74
2021/12/26 05:25:12;;;;;;;11.00;9.00;;;6.30;1.00;;;;;;5090782;28;20207;-74
2021/12/26 05:27:40;;;;;;;10.47;9.37;;;6.40;1.00;;;;;;5091109;28;20201;-74
2021/12/26 05:30:11;;;;;;;11.10;9.33;;;6.30;1.00;;;;;;5091301;28;20213;-74
2021/12/26 05:32:39;;;;;;;11.97;9.23;;;6.30;1.00;;;;;;5091344;28;20201;-75
2021/12/26 05:35:07;;;;;;;11.43;8.40;;;6.30;1.00;;;;;;5090997;28;20205;-74
2021/12/26 05:37:34;;;;;;;10.70;8.33;;;6.30;1.00;;;;;;5090852;28;20262;-76
2021/12/26 05:40:02;;;;;;;10.77;8.63;;;6.30;1.00;;;;;;5090271;28;20629;-74
2021/12/26 05:42:30;;;;;;;12.40;8.73;;;6.40;1.00;;;;;;5090905;28;20692;-74
2021/12/26 05:44:57;;;;;;;11.50;8.77;;;6.50;1.00;;;;;;5090482;28;20205;-76
2021/12/26 05:47:26;;;;;;;9.07;7.90;;;6.40;1.00;;;;;;5091018;28;20586;-75
2021/12/26 05:49:53;;;;;;;13.13;9.20;;;6.50;1.00;;;;;;5090540;28;20205;-75
2021/12/26 05:52:20;;;;;;;10.23;8.37;;;6.40;1.00;;;;;;5090483;28;20669;-73
2021/12/26 05:54:48;;;;;;;11.80;8.43;;;6.50;1.00;;;;;;5090281;28;20197;-72
2021/12/26 05:57:16;;;;;;;14.57;9.47;;;6.50;1.00;;;;;;5090611;28;20201;-74
2021/12/26 05:59:43;;;;;;;9.80;8.20;;;6.40;1.00;;;;;;5090065;28;20229;-74
2021/12/26 06:02:10;;;;;;;14.17;9.83;;;6.30;1.00;;;;;;5090701;28;20258;-73
2021/12/26 06:04:39;;;;;;;8.67;7.77;;;6.40;1.00;;;;;;5090341;28;20247;-75
2021/12/26 06:07:07;;;;;;;13.17;10.00;;;6.30;1.00;;;;;;5090949;28;20204;-73
2021/12/26 06:09:34;;;;;;;9.90;7.73;;;6.20;1.00;;;;;;5094813;28;20643;-75
2021/12/26 06:12:01;;;;;;;10.90;7.17;;;6.20;1.00;;;;;;5081087;28;20210;-79
2021/12/26 06:14:28;;;;;;;11.47;8.07;;;6.20;1.00;;;;;;5094439;28;20227;-79
2021/12/26 06:16:55;;;;;;;11.33;8.53;;;6.10;1.00;;;;;;5087468;28;20739;-76
2021/12/26 06:19:22;;;;;;;10.77;8.70;;;6.10;1.00;;;;;;5087959;28;20230;-76
2021/12/26 06:21:50;;;;;;;12.87;8.83;;;6.10;1.00;;;;;;5086559;28;20286;-80
2021/12/26 06:24:17;;;;;;;12.30;8.07;;;6.10;1.00;;;;;;5094199;28;20247;-79
2021/12/26 06:26:46;;;;;;;10.43;8.67;;;6.30;1.00;;;;;;5094049;28;20209;-77
2021/12/26 06:29:13;;;;;;;8.27;7.43;;;6.40;1.00;;;;;;5091592;28;20225;-78
2021/12/26 06:31:40;;;;;;;9.83;8.80;;;6.50;1.00;;;;;;5093986;28;20201;-78
2021/12/26 06:34:07;;;;;;;12.70;8.97;;;6.40;1.00;;;;;;5094534;28;20271;-77
2021/12/26 06:36:34;;;;;;;15.30;8.03;;;6.40;1.00;;;;;;5083225;28;20214;-75
2021/12/26 06:39:03;;;;;;;8.73;7.80;;;6.30;1.00;;;;;;5087209;28;20238;-79
2021/12/26 06:41:31;;;;;;;10.63;7.57;;;6.40;1.00;;;;;;5083910;28;20610;-80
2021/12/26 06:43:58;;;;;;;13.27;8.73;;;6.50;1.00;;;;;;5093657;28;20202;-80
2021/12/26 06:46:25;;;;;;;9.23;8.10;;;6.40;1.00;;;;;;5093743;28;20205;-80
2021/12/26 06:48:52;;;;;;;8.87;7.67;;;6.30;1.00;;;;;;5093559;28;20209;-79
2021/12/26 06:51:20;;;;;;;11.60;7.50;;;6.30;1.00;;;;;;5093388;28;20685;-76
2021/12/26 06:53:47;;;;;;;10.27;7.93;;;6.50;1.00;;;;;;5093368;28;20201;-75
2021/12/26 06:56:16;;;;;;;7.50;6.60;;;6.70;1.00;;;;;;5093648;28;20275;-74
2021/12/26 06:58:42;;;;;;;7.17;6.23;;;6.80;1.00;;;;;;5093098;28;20773;-76
2021/12/26 07:01:10;;;;;;;8.83;6.93;;;6.90;1.00;;;;;;5087777;28;20555;-75
2021/12/26 07:03:38;;;;;;;11.87;7.47;;;6.90;1.00;;;;;;5085393;28;20752;-77
2021/12/26 07:06:05;;;;;;;7.63;6.40;;;6.90;1.00;;;;;;5087495;28;20205;-74
2021/12/26 07:08:32;;;;;;;9.10;6.80;;;7.00;1.00;;;;;;5082158;28;20256;-74
2021/12/26 07:11:00;;;;;;;6.87;6.17;;;7.00;1.00;;;;;;5090508;28;20205;-75
2021/12/26 07:13:28;;;;;;;10.17;7.30;;;7.00;1.00;;;;;;5082617;28;20627;-77
2021/12/26 07:15:55;;;;;;;8.00;6.93;;;7.10;1.00;;;;;;5089913;28;20209;-76
2021/12/26 07:18:22;;;;;;;8.93;6.13;;;7.10;1.00;;;;;;5093425;28;20251;-80
2021/12/26 07:20:49;;;;;;;9.87;6.97;;;7.10;1.00;;;;;;5092549;28;20258;-79
2021/12/26 07:23:16;;;;;;;7.30;6.60;;;7.10;1.00;;;;;;5093548;28;20259;-77
2021/12/26 07:25:43;;;;;;;9.17;6.63;;;7.20;1.00;;;;;;5092825;28;20207;-76
2021/12/26 07:28:10;;;;;;;7.63;6.90;;;7.20;1.00;;;;;;5093246;28;20205;-76
2021/12/26 07:30:39;;;;;;;7.80;5.57;;;7.30;1.00;;;;;;5093359;28;20205;-80
2021/12/26 07:33:06;;;;;;;8.97;6.80;;;7.40;1.00;;;;;;5093695;28;20632;-82
2021/12/26 07:35:33;;;;;;;7.47;6.37;;;7.40;1.00;;;;;;5093462;28;20251;-80
2021/12/26 07:38:00;;;;;;;8.63;6.27;;;7.40;1.00;;;;;;5092862;28;20326;-74
2021/12/26 07:40:27;;;;;;;8.57;6.27;;;7.50;1.00;;;;;;5091894;28;20274;-75
2021/12/26 07:42:54;;;;;;;10.13;6.10;;;7.50;1.00;;;;;;5089843;28;20205;-75
2021/12/26 07:45:21;;;;;;;8.90;6.53;;;7.60;1.00;;;;;;5083384;28;20207;-75
2021/12/26 07:47:50;;;;;;;7.37;5.43;;;7.70;1.00;;;;;;5087738;28;20209;-74
2021/12/26 07:50:17;;;;;;;6.47;4.70;;;7.80;1.00;;;;;;5087704;28;20282;-77
2021/12/26 07:52:46;;;;;;;9.23;6.07;;;7.70;1.00;;;;;;5091836;28;20271;-77
2021/12/26 07:55:14;;;;;;;9.03;6.33;;;7.80;1.00;;;;;;5092512;28;20217;-74
2021/12/26 07:57:44;;;;;;;6.60;5.40;;;7.80;1.00;;;;;;5078426;28;20264;-75
2021/12/26 08:00:12;;;;;;;8.67;6.07;;;7.80;1.00;;;;;;5091348;28;21053;-73
2021/12/26 08:02:39;;;;;;;9.13;4.87;;;7.80;1.00;;;;;;5091180;28;20201;-73
2021/12/26 08:05:09;;;;;;;8.40;5.20;;;7.90;1.00;;;;;;5088291;28;20608;-74
2021/12/26 08:07:36;;;;;;;8.13;7.33;;;7.90;1.00;;;;;;5084873;28;20334;-74
2021/12/26 08:10:04;;;;;;;8.17;5.30;;;8.00;1.00;;;;;;5083050;28;20274;-73
2021/12/26 08:12:31;;;;;;;8.60;5.73;;;8.00;1.00;;;;;;5091474;28;20631;-73
2021/12/26 08:14:59;;;;;;;7.83;5.30;;;8.10;1.00;;;;;;5090731;28;20205;-73
2021/12/26 08:17:26;;;;;;;9.17;6.40;;;8.20;1.00;;;;;;5090531;28;20677;-72
2021/12/26 08:19:53;;;;;;;5.57;4.77;;;8.20;1.00;;;;;;5090622;28;20225;-75
2021/12/26 08:22:21;;;;;;;9.80;6.57;;;8.30;1.00;;;;;;5090989;28;20631;-74
2021/12/26 08:24:48;;;;;;;7.17;5.47;;;8.30;1.00;;;;;;5091169;28;20258;-78
2021/12/26 08:27:15;;;;;;;6.50;4.67;;;8.30;1.00;;;;;;5090463;28;20258;-78
2021/12/26 08:29:43;;;;;;;5.50;4.93;;;8.30;1.00;;;;;;5087382;28;20742;-76
2021/12/26 08:32:13;;;;;;;6.47;4.40;;;8.30;1.00;;;;;;5089745;28;20201;-80
2021/12/26 08:34:43;;;;;;;6.20;5.00;;;8.30;1.00;;;;;;5090882;28;20296;-77
2021/12/26 08:37:10;;;;;;;5.47;4.93;;;8.40;1.00;;;;;;5087591;28;20568;-72
2021/12/26 08:39:42;;;;;;;4.80;4.23;;;8.50;1.00;;;;;;5090956;28;20229;-74
2021/12/26 08:42:10;;;;;;;5.90;4.63;;;8.50;1.00;;;;;;5080292;28;20201;-74
2021/12/26 08:44:38;;;;;;;6.10;4.80;;;8.60;1.00;;;;;;5085559;28;20262;-71
2021/12/26 08:47:07;;;;;;;6.63;4.63;;;8.60;1.00;;;;;;5086806;28;20680;-72
2021/12/26 08:49:34;;;;;;;6.27;5.30;;;8.50;1.00;;;;;;5079710;28;20289;-76
2021/12/26 08:52:01;;;;;;;5.57;4.87;;;8.50;1.00;;;;;;5083007;28;20205;-71
2021/12/26 08:54:29;;;;;;;6.30;4.70;;;8.60;1.00;;;;;;5075204;28;20749;-73
2021/12/26 08:56:59;;;;;;;8.27;6.03;;;8.80;1.00;;;;;;5087602;28;20228;-72
2021/12/26 08:59:30;;;;;;;6.17;5.17;;;8.90;1.00;;;;;;5076820;28;20244;-71
2021/12/26 09:01:57;;;;;;;5.63;4.90;;;9.00;1.00;;;;;;5082998;28;20206;-72
2021/12/26 09:04:24;;;;;;;5.60;4.70;;;9.00;1.00;;;;;;5081883;28;20210;-74
2021/12/26 09:06:52;;;;;;;5.70;4.83;;;9.10;1.00;;;;;;5081342;28;20266;-73
2021/12/26 09:09:19;;;;;;;7.70;4.97;;;9.10;1.00;;;;;;5086429;28;20643;-74
2021/12/26 09:11:46;;;;;;;5.93;4.93;;;9.00;1.00;;;;;;5075567;28;20206;-75
2021/12/26 09:14:14;;;;;;;6.90;4.73;;;8.90;1.00;;;;;;5089755;28;20726;-72
2021/12/26 09:16:41;;;;;;;7.67;5.17;;;9.00;1.00;;;;;;5085496;28;20202;-75
2021/12/26 09:19:09;;;;;;;8.20;5.37;;;9.00;1.00;;;;;;5088661;28;20226;-73
2021/12/26 09:21:36;;;;;;;7.97;5.70;;;9.20;1.00;;;;;;5085493;28;20258;-74
2021/12/26 09:24:04;;;;;;;5.77;4.43;;;9.30;1.00;;;;;;5088505;28;20225;-76
2021/12/26 09:26:31;;;;;;;11.20;5.70;;;9.30;1.00;;;;;;5089850;28;20730;-75
2021/12/26 09:28:59;;;;;;;5.57;4.93;;;9.40;1.00;;;;;;5085046;28;20661;-76
2021/12/26 09:31:28;;;;;;;6.53;5.13;;;9.50;1.00;;;;;;5089719;28;20255;-73
2021/12/26 09:33:56;;;;;;;5.60;5.00;;;9.60;1.00;;;;;;5089015;28;20210;-77
2021/12/26 09:36:23;;;;;;;6.60;4.70;;;9.50;1.00;;;;;;5090043;28;20197;-72
2021/12/26 09:38:50;;;;;;;9.23;5.03;;;9.70;1.00;;;;;;5089312;28;20681;-75
2021/12/26 09:41:17;;;;;;;6.90;5.17;;;10.00;1.00;;;;;;5089481;28;20201;-77
2021/12/26 09:43:44;;;;;;;6.20;5.13;;;10.40;1.00;;;;;;5089411;28;20201;-77
2021/12/26 09:46:11;;;;;;;7.00;5.27;;;11.40;1.00;;;;;;5090132;28;20209;-76
2021/12/26 09:48:39;;;;;;;5.50;4.50;;;10.90;1.00;;;;;;5082886;28;20205;-75
2021/12/26 09:51:06;;;;;;;6.70;5.30;;;10.80;1.00;;;;;;5087260;28;20262;-75
2021/12/26 09:53:38;;;;;;;7.40;5.00;;;;;;;;;;5089350;28;20631;-75
2021/12/26 09:56:07;;;;;;;6.50;4.30;;;10.90;1.00;;;;;;5086563;28;20198;-73
2021/12/26 09:58:34;;;;;;;5.63;4.53;;;10.70;1.00;;;;;;5085874;28;20741;-71
2021/12/26 10:01:02;;;;;;;5.90;4.37;;;10.80;1.00;;;;;;5088895;28;20671;-71
2021/12/26 10:03:33;;;;;;;5.43;4.40;;;10.60;1.00;;;;;;5089205;28;20676;-73
2021/12/26 10:06:10;;;;;;;8.23;5.27;;;10.60;1.00;;;;;;5089266;28;20225;-73
2021/12/26 10:08:53;;;;;;;6.70;4.63;;;10.80;1.00;;;;;;5084027;28;20232;-70
2021/12/26 10:11:21;;;;;;;6.77;6.07;;;10.70;1.00;;;;;;5087512;28;20689;-73
2021/12/26 10:13:50;;;;;;;6.27;5.53;;;10.80;1.00;;;;;;5080014;28;20205;-77
2021/12/26 10:16:19;;;;;;;10.97;6.27;;;11.90;1.00;;;;;;5087541;28;20289;-72
2021/12/26 10:18:47;;;;;;;8.80;7.00;;;11.40;1.00;;;;;;5088681;28;20259;-74
2021/12/26 10:21:38;;;;;;;9.77;7.70;;;11.40;1.00;;;;;;5084332;28;20286;-79
2021/12/26 10:24:17;;;;;;;7.03;5.57;;;11.30;1.00;;;;;;5086658;28;20201;-77
2021/12/26 10:26:47;;;;;;;7.37;5.73;;;11.40;1.00;;;;;;5089066;28;20202;-78
2021/12/26 10:29:20;;;;;;;9.53;6.27;;;11.50;1.00;;;;;;5089598;28;20230;-81
2021/12/26 10:31:53;;;;;;;8.37;6.00;;;11.60;1.00;;;;;;5083670;28;20205;-81
2021/12/26 10:34:24;;;;;;;8.90;7.83;;;11.80;1.00;;;;;;5088048;28;20247;-80
2021/12/26 10:36:54;;;;;;;7.37;6.67;;;11.90;1.00;;;;;;5089971;28;20205;-76
2021/12/26 10:39:24;;;;;;;6.90;5.77;;;11.90;1.00;;;;;;5089289;28;20198;-80
2021/12/26 10:41:54;;;;;;;5.47;4.97;;;11.90;1.00;;;;;;5089590;28;20205;-78
2021/12/26 10:44:32;;;;;;;6.37;5.50;;;11.80;1.00;;;;;;5090105;28;20262;-86
2021/12/26 10:47:05;;;;;;;7.80;6.13;;;11.60;1.00;;;;;;5089820;28;20205;-82
2021/12/26 10:49:44;;;;;;;7.60;5.73;;;11.60;1.00;;;;;;5089580;28;20201;-76
2021/12/26 10:52:22;;;;;;;5.67;5.07;;;11.60;1.00;;;;;;5089532;28;20205;-72
2021/12/26 10:54:56;;;;;;;8.15;5.70;;;11.60;1.00;;;;;;5090570;28;20205;-73
2021/12/26 10:57:25;;;;;;;5.23;4.73;;;11.70;1.00;;;;;;5092973;28;20235;-73
2021/12/26 11:00:11;;;;;;;6.83;5.03;;;11.70;1.00;;;;;;5092569;28;20270;-81
2021/12/26 11:02:41;;;;;;;6.87;5.87;;;11.70;1.00;;;;;;5087237;28;20193;-74
2021/12/26 11:05:10;;;;;;;12.85;9.57;;;11.80;1.00;;;;;;5093524;28;20592;-78
2021/12/26 11:07:47;;;;;;;6.70;6.00;;;12.00;1.00;;;;;;5093789;28;20213;-77
2021/12/26 11:10:18;;;;;;;6.87;5.07;;;12.00;1.00;;;;;;5091904;28;20206;-75
2021/12/26 11:12:49;;;;;;;6.50;5.43;;;12.20;1.00;;;;;;5092829;28;20198;-88
2021/12/26 11:15:17;;;;;;;5.68;4.88;;;12.30;1.00;;;;;;5093614;28;20251;-85
2021/12/26 11:17:49;;;;;;;5.45;4.95;;;12.30;1.00;;;;;;5092584;28;20258;-80
2021/12/26 11:20:35;;;;;;;7.80;5.20;;;12.40;1.00;;;;;;5091024;28;20294;-77
2021/12/26 11:23:09;;;;;;;7.07;5.55;;;12.60;1.00;;;;;;5088599;28;20201;-78
2021/12/26 11:25:38;;;;;;;6.32;4.85;;;12.40;1.00;;;;;;5092767;28;20453;-74
2021/12/26 11:28:05;;;;;;;8.13;5.97;;;12.30;1.00;;;;;;5086465;28;20280;-78
2021/12/26 11:30:33;;;;;;;6.72;5.80;;;12.30;1.00;;;;;;5092830;28;20210;-77
2021/12/26 11:33:01;;;;;;;5.95;5.32;;;12.60;1.00;;;;;;5089674;28;20206;-73
2021/12/26 11:35:29;;;;;;;6.95;5.18;;;13.00;1.00;;;;;;5089906;28;20251;-77
2021/12/26 11:37:57;;;;;;;4.88;4.18;;;13.00;1.00;;;;;;5087168;28;20660;-80
2021/12/26 11:40:26;;;;;;;4.65;3.95;;;13.10;1.00;;;;;;5087063;28;20628;-77
2021/12/26 11:43:12;;;;;;;6.93;4.22;;;13.10;1.00;;;;;;5081366;28;20202;-75
2021/12/26 11:45:46;;;;;;;4.85;4.15;;;13.20;1.00;;;;;;5083161;28;20811;-74
2021/12/26 11:48:45;;;;;;;6.15;5.40;;;13.00;1.00;;;;;;5081287;28;20660;-75
2021/12/26 11:51:53;;;;;;;5.78;5.10;;;13.00;1.00;;;;;;5085849;28;20213;-74
2021/12/26 11:54:53;;;;;;;8.00;5.38;;;12.90;1.00;;;;;;5034469;28;20204;-75
2021/12/26 11:57:57;;;;;;;7.20;4.88;;;12.90;1.00;;;;;;5089170;28;20610;-75
2021/12/26 12:00:27;;;;;;;6.13;4.72;;;13.00;1.00;;;;;;5087195;28;20228;-76
2021/12/26 12:02:56;;;;;;;6.55;5.35;;;12.90;1.00;;;;;;5091341;28;20251;-75
2021/12/26 12:05:25;;;;;;;8.18;5.63;;;12.50;1.00;;;;;;5091610;28;20198;-74
2021/12/26 12:07:56;;;;;;;6.35;4.70;;;12.40;1.00;;;;;;5091708;28;20250;-75
2021/12/26 12:10:42;;;;;;;7.45;3.72;;;12.40;1.00;;;;;;5080639;28;20293;-76
2021/12/26 12:13:14;;;;;;;4.70;4.13;;;12.60;1.00;;;;;;5085981;28;20209;-76
2021/12/26 12:15:48;;;;;;;4.68;3.88;;;13.00;1.00;;;;;;5074668;28;20264;-75
2021/12/26 12:18:19;;;;;;;4.53;3.28;;;13.70;1.00;;;;;;5077238;28;20630;-74
2021/12/26 12:20:47;;;;;;;5.22;3.83;;;13.80;1.00;;;;;;5083284;28;20712;-77
2021/12/26 12:23:20;;;;;;;5.03;3.28;;;13.50;1.00;;;;;;5076335;28;20700;-76
2021/12/26 12:25:53;;;;;;;4.57;2.70;;;13.40;1.00;;;;;;5079568;28;20209;-79
2021/12/26 12:28:25;;;;;;;4.85;3.53;;;13.50;1.00;;;;;;5081549;28;20216;-75
2021/12/26 12:30:55;;;;;;;6.93;4.15;;;13.70;1.00;;;;;;5086550;28;20217;-75
2021/12/26 12:33:28;;;;;;;4.30;3.15;;;13.60;1.00;;;;;;5090812;28;20669;-79
2021/12/26 12:36:04;;;;;;;3.97;3.00;;;13.40;1.00;;;;;;5087467;28;20210;-80
2021/12/26 12:38:38;;;;;;;6.70;2.72;;;13.40;1.00;;;;;;5090869;28;20197;-80
2021/12/26 12:41:08;;;;;;;3.28;2.90;;;13.40;1.00;;;;;;5090462;28;20241;-79
2021/12/26 12:43:45;;;;;;;3.95;2.88;;;13.50;1.00;;;;;;5086043;28;20206;-78
2021/12/26 12:46:13;;;;;;;3.60;3.03;;;13.50;1.00;;;;;;5090856;28;20208;-77
2021/12/26 12:48:47;;;;;;;6.65;3.65;;;13.60;1.00;;;;;;5090115;28;20197;-75
2021/12/26 12:51:48;;;;;;;4.50;3.25;;;13.50;1.00;;;;;;5090379;28;20206;-78
2021/12/26 12:54:30;;;;;;;6.00;3.83;;;13.50;1.00;;;;;;5088835;28;20242;-78
2021/12/26 12:56:58;;;;;;;4.65;3.17;;;13.50;1.00;;;;;;5087639;28;20221;-75
2021/12/26 12:59:39;;;;;;;5.45;3.47;;;13.50;1.00;;;;;;5089906;28;20242;-75
2021/12/26 13:02:27;;;;;;;5.20;2.95;;;13.50;1.00;;;;;;5089887;28;20278;-74
2021/12/26 13:04:54;;;;;;;3.80;3.00;;;13.40;1.00;;;;;;5085526;28;20204;-77
2021/12/26 13:07:24;;;;;;;5.15;3.58;;;13.30;1.00;;;;;;5090289;28;20197;-79